sensor_id;sensor_type;location;lat;lon;timestamp;P1;durP1;ratioP1;P2;durP2;ratioP2
68680;SDS011;55836;49.858;6.756;2022-12-18T00:01:37;28.73;;;14.53;;
68680;SDS011;55836;49.858;6.756;2022-12-18T00:04:07;29.00;;;14.27;;
68680;SDS011;55836;49.858;6.756;2022-12-18T00:06:34;32.70;;;15.07;;
68680;SDS011;55836;49.858;6.756;2022-12-18T00:09:00;36.57;;;18.27;;
68680;SDS011;55836;49.858;6.756;2022-12-18T00:11:28;38.37;;;17.73;;
68680;SDS011;55836;49.858;6.756;2022-12-18T00:13:55;39.43;;;21.87;;
68680;SDS011;55836;49.858;6.756;2022-12-18T00:16:22;27.97;;;14.63;;
68680;SDS011;55836;49.858;6.756;2022-12-18T00:18:49;33.03;;;15.70;;
68680;SDS011;55836;49.858;6.756;2022-12-18T00:21:17;32.60;;;16.13;;
68680;SDS011;55836;49.858;6.756;2022-12-18T00:23:44;33.30;;;15.57;;
68680;SDS011;55836;49.858;6.756;2022-12-18T00:26:11;37.53;;;15.13;;
68680;SDS011;55836;49.858;6.756;2022-12-18T00:28:37;29.97;;;15.03;;
68680;SDS011;55836;49.858;6.756;2022-12-18T00:31:04;42.23;;;19.10;;
68680;SDS011;55836;49.858;6.756;2022-12-18T00:33:31;32.10;;;15.40;;
68680;SDS011;55836;49.858;6.756;2022-12-18T00:36:01;37.07;;;16.80;;
68680;SDS011;55836;49.858;6.756;2022-12-18T00:38:27;34.63;;;15.33;;
68680;SDS011;55836;49.858;6.756;2022-12-18T00:40:53;35.07;;;16.43;;
68680;SDS011;55836;49.858;6.756;2022-12-18T00:43:19;33.40;;;14.73;;
68680;SDS011;55836;49.858;6.756;2022-12-18T00:45:45;33.37;;;15.97;;
68680;SDS011;55836;49.858;6.756;2022-12-18T00:48:11;33.27;;;14.80;;
68680;SDS011;55836;49.858;6.756;2022-12-18T00:50:37;29.37;;;14.13;;
68680;SDS011;55836;49.858;6.756;2022-12-18T00:53:03;34.17;;;14.93;;
68680;SDS011;55836;49.858;6.756;2022-12-18T00:55:30;32.53;;;15.30;;
68680;SDS011;55836;49.858;6.756;2022-12-18T00:57:56;30.10;;;14.50;;
68680;SDS011;55836;49.858;6.756;2022-12-18T01:00:22;30.80;;;13.67;;
68680;SDS011;55836;49.858;6.756;2022-12-18T01:02:48;32.07;;;14.90;;
68680;SDS011;55836;49.858;6.756;2022-12-18T01:05:14;29.23;;;13.93;;
68680;SDS011;55836;49.858;6.756;2022-12-18T01:07:41;29.60;;;14.80;;
68680;SDS011;55836;49.858;6.756;2022-12-18T01:10:07;28.17;;;15.20;;
68680;SDS011;55836;49.858;6.756;2022-12-18T01:12:34;28.60;;;14.47;;
68680;SDS011;55836;49.858;6.756;2022-12-18T01:15:00;29.93;;;14.80;;
68680;SDS011;55836;49.858;6.756;2022-12-18T01:17:26;33.53;;;16.23;;
68680;SDS011;55836;49.858;6.756;2022-12-18T01:19:52;26.70;;;14.30;;
68680;SDS011;55836;49.858;6.756;2022-12-18T01:22:18;29.63;;;14.77;;
68680;SDS011;55836;49.858;6.756;2022-12-18T01:24:44;31.83;;;15.50;;
68680;SDS011;55836;49.858;6.756;2022-12-18T01:27:10;30.43;;;15.23;;
68680;SDS011;55836;49.858;6.756;2022-12-18T01:29:36;32.77;;;16.60;;
68680;SDS011;55836;49.858;6.756;2022-12-18T01:32:02;26.53;;;14.93;;
68680;SDS011;55836;49.858;6.756;2022-12-18T01:34:28;31.33;;;14.20;;
68680;SDS011;55836;49.858;6.756;2022-12-18T01:36:54;24.83;;;12.83;;
68680;SDS011;55836;49.858;6.756;2022-12-18T01:39:20;28.13;;;12.90;;
68680;SDS011;55836;49.858;6.756;2022-12-18T01:41:46;29.47;;;14.27;;
68680;SDS011;55836;49.858;6.756;2022-12-18T01:47:31;33.80;;;15.27;;
68680;SDS011;55836;49.858;6.756;2022-12-18T01:49:58;28.97;;;14.37;;
68680;SDS011;55836;49.858;6.756;2022-12-18T01:52:26;29.43;;;14.30;;
68680;SDS011;55836;49.858;6.756;2022-12-18T01:54:53;28.30;;;14.73;;
68680;SDS011;55836;49.858;6.756;2022-12-18T01:57:21;30.63;;;16.70;;
68680;SDS011;55836;49.858;6.756;2022-12-18T01:59:49;28.83;;;14.23;;
68680;SDS011;55836;49.858;6.756;2022-12-18T02:02:16;33.37;;;14.00;;
68680;SDS011;55836;49.858;6.756;2022-12-18T02:04:42;26.50;;;13.73;;
68680;SDS011;55836;49.858;6.756;2022-12-18T02:07:14;29.37;;;14.20;;
68680;SDS011;55836;49.858;6.756;2022-12-18T02:09:57;25.80;;;13.37;;
68680;SDS011;55836;49.858;6.756;2022-12-18T02:12:25;29.57;;;14.80;;
68680;SDS011;55836;49.858;6.756;2022-12-18T02:15:09;31.40;;;15.10;;
68680;SDS011;55836;49.858;6.756;2022-12-18T02:17:40;28.23;;;14.33;;
68680;SDS011;55836;49.858;6.756;2022-12-18T02:20:20;31.87;;;15.30;;
68680;SDS011;55836;49.858;6.756;2022-12-18T02:28:17;25.03;;;12.70;;
68680;SDS011;55836;49.858;6.756;2022-12-18T02:30:45;27.60;;;12.90;;
68680;SDS011;55836;49.858;6.756;2022-12-18T02:33:13;30.23;;;12.97;;
68680;SDS011;55836;49.858;6.756;2022-12-18T02:35:40;30.63;;;13.93;;
68680;SDS011;55836;49.858;6.756;2022-12-18T02:41:34;25.70;;;11.70;;
68680;SDS011;55836;49.858;6.756;2022-12-18T02:44:02;22.17;;;10.97;;
68680;SDS011;55836;49.858;6.756;2022-12-18T02:59:34;27.27;;;13.40;;
68680;SDS011;55836;49.858;6.756;2022-12-18T03:02:07;24.10;;;13.17;;
68680;SDS011;55836;49.858;6.756;2022-12-18T03:12:21;27.97;;;13.63;;
68680;SDS011;55836;49.858;6.756;2022-12-18T03:14:57;26.00;;;12.97;;
68680;SDS011;55836;49.858;6.756;2022-12-18T03:22:47;29.00;;;14.17;;
68680;SDS011;55836;49.858;6.756;2022-12-18T03:25:26;32.47;;;14.77;;
68680;SDS011;55836;49.858;6.756;2022-12-18T03:35:52;23.20;;;13.33;;
68680;SDS011;55836;49.858;6.756;2022-12-18T03:46:15;24.87;;;12.63;;
68680;SDS011;55836;49.858;6.756;2022-12-18T03:48:51;25.17;;;12.20;;
68680;SDS011;55836;49.858;6.756;2022-12-18T03:51:26;24.87;;;13.30;;
68680;SDS011;55836;49.858;6.756;2022-12-18T03:53:55;24.20;;;13.07;;
68680;SDS011;55836;49.858;6.756;2022-12-18T03:56:23;26.27;;;12.60;;
68680;SDS011;55836;49.858;6.756;2022-12-18T03:58:51;25.60;;;12.73;;
68680;SDS011;55836;49.858;6.756;2022-12-18T04:01:17;23.53;;;13.00;;
68680;SDS011;55836;49.858;6.756;2022-12-18T04:03:46;26.33;;;14.27;;
68680;SDS011;55836;49.858;6.756;2022-12-18T04:21:47;24.67;;;12.03;;
68680;SDS011;55836;49.858;6.756;2022-12-18T04:24:13;23.87;;;12.63;;
68680;SDS011;55836;49.858;6.756;2022-12-18T04:29:14;26.27;;;12.53;;
68680;SDS011;55836;49.858;6.756;2022-12-18T04:31:40;24.30;;;12.97;;
68680;SDS011;55836;49.858;6.756;2022-12-18T04:34:07;23.10;;;11.40;;
68680;SDS011;55836;49.858;6.756;2022-12-18T04:36:33;18.20;;;10.27;;
68680;SDS011;55836;49.858;6.756;2022-12-18T04:38:59;23.33;;;12.00;;
68680;SDS011;55836;49.858;6.756;2022-12-18T04:41:25;20.87;;;11.40;;
68680;SDS011;55836;49.858;6.756;2022-12-18T04:43:51;22.07;;;12.00;;
68680;SDS011;55836;49.858;6.756;2022-12-18T04:46:17;17.47;;;10.53;;
68680;SDS011;55836;49.858;6.756;2022-12-18T04:48:44;24.50;;;12.37;;
68680;SDS011;55836;49.858;6.756;2022-12-18T04:51:10;23.17;;;12.43;;
68680;SDS011;55836;49.858;6.756;2022-12-18T04:53:36;23.80;;;11.50;;
68680;SDS011;55836;49.858;6.756;2022-12-18T04:56:03;27.10;;;11.77;;
68680;SDS011;55836;49.858;6.756;2022-12-18T04:58:29;23.07;;;11.20;;
68680;SDS011;55836;49.858;6.756;2022-12-18T05:00:56;24.60;;;12.27;;
68680;SDS011;55836;49.858;6.756;2022-12-18T05:03:21;22.37;;;11.90;;
68680;SDS011;55836;49.858;6.756;2022-12-18T05:05:51;23.93;;;13.40;;
68680;SDS011;55836;49.858;6.756;2022-12-18T05:08:17;20.50;;;11.77;;
68680;SDS011;55836;49.858;6.756;2022-12-18T05:10:43;23.50;;;12.03;;
68680;SDS011;55836;49.858;6.756;2022-12-18T05:13:09;26.27;;;12.10;;
68680;SDS011;55836;49.858;6.756;2022-12-18T05:15:35;24.10;;;12.90;;
68680;SDS011;55836;49.858;6.756;2022-12-18T05:18:02;22.30;;;12.40;;
68680;SDS011;55836;49.858;6.756;2022-12-18T05:20:29;22.30;;;11.63;;
68680;SDS011;55836;49.858;6.756;2022-12-18T05:22:55;23.77;;;12.47;;
68680;SDS011;55836;49.858;6.756;2022-12-18T05:25:21;26.23;;;12.60;;
68680;SDS011;55836;49.858;6.756;2022-12-18T05:27:48;21.63;;;10.77;;
68680;SDS011;55836;49.858;6.756;2022-12-18T05:30:14;21.03;;;11.37;;
68680;SDS011;55836;49.858;6.756;2022-12-18T05:32:41;21.70;;;11.63;;
68680;SDS011;55836;49.858;6.756;2022-12-18T05:35:08;19.93;;;11.50;;
68680;SDS011;55836;49.858;6.756;2022-12-18T05:37:34;24.97;;;11.30;;
68680;SDS011;55836;49.858;6.756;2022-12-18T05:40:00;18.30;;;10.37;;
68680;SDS011;55836;49.858;6.756;2022-12-18T05:42:26;21.83;;;12.30;;
68680;SDS011;55836;49.858;6.756;2022-12-18T05:44:53;24.27;;;11.13;;
68680;SDS011;55836;49.858;6.756;2022-12-18T05:47:19;23.33;;;11.17;;
68680;SDS011;55836;49.858;6.756;2022-12-18T05:49:45;23.83;;;11.20;;
68680;SDS011;55836;49.858;6.756;2022-12-18T05:52:11;22.97;;;9.83;;
68680;SDS011;55836;49.858;6.756;2022-12-18T05:54:37;20.50;;;11.27;;
68680;SDS011;55836;49.858;6.756;2022-12-18T05:57:03;17.57;;;9.90;;
68680;SDS011;55836;49.858;6.756;2022-12-18T05:59:29;22.90;;;12.57;;
68680;SDS011;55836;49.858;6.756;2022-12-18T06:01:56;22.40;;;11.23;;
68680;SDS011;55836;49.858;6.756;2022-12-18T06:04:22;25.63;;;13.07;;
68680;SDS011;55836;49.858;6.756;2022-12-18T06:06:48;29.13;;;13.40;;
68680;SDS011;55836;49.858;6.756;2022-12-18T06:09:14;23.93;;;13.37;;
68680;SDS011;55836;49.858;6.756;2022-12-18T06:11:40;24.73;;;13.17;;
68680;SDS011;55836;49.858;6.756;2022-12-18T06:14:06;25.83;;;13.07;;
68680;SDS011;55836;49.858;6.756;2022-12-18T06:16:32;21.17;;;12.20;;
68680;SDS011;55836;49.858;6.756;2022-12-18T06:18:59;25.73;;;13.47;;
68680;SDS011;55836;49.858;6.756;2022-12-18T06:21:25;24.20;;;12.50;;
68680;SDS011;55836;49.858;6.756;2022-12-18T06:23:51;27.00;;;13.70;;
68680;SDS011;55836;49.858;6.756;2022-12-18T06:26:17;24.87;;;12.07;;
68680;SDS011;55836;49.858;6.756;2022-12-18T06:28:44;25.33;;;13.93;;
68680;SDS011;55836;49.858;6.756;2022-12-18T06:31:10;27.50;;;13.23;;
68680;SDS011;55836;49.858;6.756;2022-12-18T06:33:36;26.07;;;12.50;;
68680;SDS011;55836;49.858;6.756;2022-12-18T06:36:06;20.87;;;11.03;;
68680;SDS011;55836;49.858;6.756;2022-12-18T06:38:33;26.93;;;12.33;;
68680;SDS011;55836;49.858;6.756;2022-12-18T06:40:59;20.60;;;13.30;;
68680;SDS011;55836;49.858;6.756;2022-12-18T06:43:25;25.10;;;12.87;;
68680;SDS011;55836;49.858;6.756;2022-12-18T06:45:57;27.23;;;13.80;;
68680;SDS011;55836;49.858;6.756;2022-12-18T06:48:23;24.93;;;12.57;;
68680;SDS011;55836;49.858;6.756;2022-12-18T06:50:49;24.17;;;13.30;;
68680;SDS011;55836;49.858;6.756;2022-12-18T06:53:15;26.73;;;13.37;;
68680;SDS011;55836;49.858;6.756;2022-12-18T06:55:41;24.43;;;13.07;;
68680;SDS011;55836;49.858;6.756;2022-12-18T06:58:07;25.70;;;12.93;;
68680;SDS011;55836;49.858;6.756;2022-12-18T07:00:33;24.10;;;12.17;;
68680;SDS011;55836;49.858;6.756;2022-12-18T07:02:59;22.73;;;13.27;;
68680;SDS011;55836;49.858;6.756;2022-12-18T07:05:25;24.00;;;12.03;;
68680;SDS011;55836;49.858;6.756;2022-12-18T07:07:51;22.03;;;11.20;;
68680;SDS011;55836;49.858;6.756;2022-12-18T07:10:17;28.37;;;12.63;;
68680;SDS011;55836;49.858;6.756;2022-12-18T07:12:43;20.60;;;12.33;;
68680;SDS011;55836;49.858;6.756;2022-12-18T07:15:09;27.27;;;12.50;;
68680;SDS011;55836;49.858;6.756;2022-12-18T07:17:35;26.13;;;13.33;;
68680;SDS011;55836;49.858;6.756;2022-12-18T07:20:01;29.27;;;11.97;;
68680;SDS011;55836;49.858;6.756;2022-12-18T07:22:27;27.13;;;11.83;;
68680;SDS011;55836;49.858;6.756;2022-12-18T07:24:53;24.67;;;13.07;;
68680;SDS011;55836;49.858;6.756;2022-12-18T07:27:20;23.67;;;12.10;;
68680;SDS011;55836;49.858;6.756;2022-12-18T07:29:46;22.57;;;11.07;;
68680;SDS011;55836;49.858;6.756;2022-12-18T07:32:12;25.83;;;12.20;;
68680;SDS011;55836;49.858;6.756;2022-12-18T07:34:38;23.13;;;12.60;;
68680;SDS011;55836;49.858;6.756;2022-12-18T07:37:04;24.73;;;12.43;;
68680;SDS011;55836;49.858;6.756;2022-12-18T07:39:30;23.50;;;12.43;;
68680;SDS011;55836;49.858;6.756;2022-12-18T07:41:56;24.10;;;12.73;;
68680;SDS011;55836;49.858;6.756;2022-12-18T07:44:41;21.50;;;13.10;;
68680;SDS011;55836;49.858;6.756;2022-12-18T07:47:07;23.67;;;12.80;;
68680;SDS011;55836;49.858;6.756;2022-12-18T07:49:33;29.10;;;13.63;;
68680;SDS011;55836;49.858;6.756;2022-12-18T07:51:59;34.77;;;14.77;;
68680;SDS011;55836;49.858;6.756;2022-12-18T07:54:26;29.87;;;14.80;;
68680;SDS011;55836;49.858;6.756;2022-12-18T07:56:52;35.77;;;15.77;;
68680;SDS011;55836;49.858;6.756;2022-12-18T07:59:18;29.17;;;14.47;;
68680;SDS011;55836;49.858;6.756;2022-12-18T08:01:44;25.77;;;14.43;;
68680;SDS011;55836;49.858;6.756;2022-12-18T08:04:10;29.60;;;14.17;;
68680;SDS011;55836;49.858;6.756;2022-12-18T08:06:36;26.67;;;13.57;;
68680;SDS011;55836;49.858;6.756;2022-12-18T08:09:03;27.40;;;15.13;;
68680;SDS011;55836;49.858;6.756;2022-12-18T08:11:29;34.43;;;14.60;;
68680;SDS011;55836;49.858;6.756;2022-12-18T08:13:55;26.00;;;14.50;;
68680;SDS011;55836;49.858;6.756;2022-12-18T08:16:22;28.27;;;14.37;;
68680;SDS011;55836;49.858;6.756;2022-12-18T08:18:48;30.67;;;16.40;;
68680;SDS011;55836;49.858;6.756;2022-12-18T08:21:15;29.83;;;15.27;;
68680;SDS011;55836;49.858;6.756;2022-12-18T08:23:42;35.37;;;16.97;;
68680;SDS011;55836;49.858;6.756;2022-12-18T08:26:08;32.50;;;18.37;;
68680;SDS011;55836;49.858;6.756;2022-12-18T08:28:35;43.47;;;22.60;;
68680;SDS011;55836;49.858;6.756;2022-12-18T08:31:01;39.73;;;19.93;;
68680;SDS011;55836;49.858;6.756;2022-12-18T08:33:27;39.40;;;20.30;;
68680;SDS011;55836;49.858;6.756;2022-12-18T08:35:53;37.17;;;20.23;;
68680;SDS011;55836;49.858;6.756;2022-12-18T08:38:19;41.73;;;22.47;;
68680;SDS011;55836;49.858;6.756;2022-12-18T08:40:45;49.93;;;25.37;;
68680;SDS011;55836;49.858;6.756;2022-12-18T08:43:11;47.63;;;25.53;;
68680;SDS011;55836;49.858;6.756;2022-12-18T08:45:56;40.87;;;22.37;;
68680;SDS011;55836;49.858;6.756;2022-12-18T08:48:22;46.03;;;22.37;;
68680;SDS011;55836;49.858;6.756;2022-12-18T08:50:58;47.37;;;22.03;;
68680;SDS011;55836;49.858;6.756;2022-12-18T08:53:24;36.17;;;20.03;;
68680;SDS011;55836;49.858;6.756;2022-12-18T08:55:50;40.40;;;17.97;;
68680;SDS011;55836;49.858;6.756;2022-12-18T08:58:16;30.47;;;15.37;;
68680;SDS011;55836;49.858;6.756;2022-12-18T09:00:42;25.97;;;14.20;;
68680;SDS011;55836;49.858;6.756;2022-12-18T09:03:12;26.37;;;13.53;;
68680;SDS011;55836;49.858;6.756;2022-12-18T09:05:39;29.83;;;14.83;;
68680;SDS011;55836;49.858;6.756;2022-12-18T09:08:05;30.90;;;16.80;;
68680;SDS011;55836;49.858;6.756;2022-12-18T09:10:31;33.90;;;16.33;;
68680;SDS011;55836;49.858;6.756;2022-12-18T09:12:57;28.47;;;13.57;;
68680;SDS011;55836;49.858;6.756;2022-12-18T09:15:23;26.30;;;14.17;;
68680;SDS011;55836;49.858;6.756;2022-12-18T09:17:49;29.70;;;14.53;;
68680;SDS011;55836;49.858;6.756;2022-12-18T09:20:17;26.40;;;14.50;;
68680;SDS011;55836;49.858;6.756;2022-12-18T09:22:43;26.50;;;15.67;;
68680;SDS011;55836;49.858;6.756;2022-12-18T09:25:10;30.17;;;13.67;;
68680;SDS011;55836;49.858;6.756;2022-12-18T09:27:36;32.47;;;16.07;;
68680;SDS011;55836;49.858;6.756;2022-12-18T09:30:03;37.77;;;18.40;;
68680;SDS011;55836;49.858;6.756;2022-12-18T09:32:29;29.03;;;15.43;;
68680;SDS011;55836;49.858;6.756;2022-12-18T09:34:55;33.93;;;16.83;;
68680;SDS011;55836;49.858;6.756;2022-12-18T09:37:21;30.93;;;17.20;;
68680;SDS011;55836;49.858;6.756;2022-12-18T09:39:47;30.67;;;16.60;;
68680;SDS011;55836;49.858;6.756;2022-12-18T09:42:18;36.40;;;17.17;;
68680;SDS011;55836;49.858;6.756;2022-12-18T09:44:48;29.20;;;14.77;;
68680;SDS011;55836;49.858;6.756;2022-12-18T09:50:01;29.90;;;16.53;;
68680;SDS011;55836;49.858;6.756;2022-12-18T09:52:33;35.00;;;18.17;;
68680;SDS011;55836;49.858;6.756;2022-12-18T09:55:05;34.30;;;18.10;;
68680;SDS011;55836;49.858;6.756;2022-12-18T09:57:34;32.43;;;17.90;;
68680;SDS011;55836;49.858;6.756;2022-12-18T10:00:08;32.73;;;16.97;;
68680;SDS011;55836;49.858;6.756;2022-12-18T10:02:36;36.53;;;18.43;;
68680;SDS011;55836;49.858;6.756;2022-12-18T10:07:49;36.87;;;18.70;;
68680;SDS011;55836;49.858;6.756;2022-12-18T10:10:22;32.40;;;15.67;;
68680;SDS011;55836;49.858;6.756;2022-12-18T10:12:52;28.53;;;14.93;;
68680;SDS011;55836;49.858;6.756;2022-12-18T10:25:40;33.63;;;19.63;;
68680;SDS011;55836;49.858;6.756;2022-12-18T10:28:14;35.37;;;19.60;;
68680;SDS011;55836;49.858;6.756;2022-12-18T10:30:41;32.23;;;16.20;;
68680;SDS011;55836;49.858;6.756;2022-12-18T10:33:11;32.27;;;16.73;;
68680;SDS011;55836;49.858;6.756;2022-12-18T10:35:39;34.50;;;18.70;;
68680;SDS011;55836;49.858;6.756;2022-12-18T10:38:07;37.47;;;19.13;;
68680;SDS011;55836;49.858;6.756;2022-12-18T10:43:37;36.13;;;19.90;;
68680;SDS011;55836;49.858;6.756;2022-12-18T10:51:05;36.13;;;19.07;;
68680;SDS011;55836;49.858;6.756;2022-12-18T10:53:32;35.63;;;19.63;;
68680;SDS011;55836;49.858;6.756;2022-12-18T10:56:00;37.33;;;20.87;;
68680;SDS011;55836;49.858;6.756;2022-12-18T10:58:28;32.90;;;18.10;;
68680;SDS011;55836;49.858;6.756;2022-12-18T11:01:05;37.93;;;22.17;;
68680;SDS011;55836;49.858;6.756;2022-12-18T11:03:33;38.70;;;20.73;;
68680;SDS011;55836;49.858;6.756;2022-12-18T11:06:22;39.00;;;22.47;;
68680;SDS011;55836;49.858;6.756;2022-12-18T11:09:02;38.27;;;21.90;;
68680;SDS011;55836;49.858;6.756;2022-12-18T11:11:28;42.23;;;22.00;;
68680;SDS011;55836;49.858;6.756;2022-12-18T11:14:02;39.50;;;22.80;;
68680;SDS011;55836;49.858;6.756;2022-12-18T11:16:29;38.30;;;22.70;;
68680;SDS011;55836;49.858;6.756;2022-12-18T11:19:08;38.47;;;22.60;;
68680;SDS011;55836;49.858;6.756;2022-12-18T11:21:40;43.27;;;23.03;;
68680;SDS011;55836;49.858;6.756;2022-12-18T11:24:07;35.37;;;20.73;;
68680;SDS011;55836;49.858;6.756;2022-12-18T11:26:43;37.67;;;21.40;;
68680;SDS011;55836;49.858;6.756;2022-12-18T11:29:10;34.07;;;20.80;;
68680;SDS011;55836;49.858;6.756;2022-12-18T11:31:42;38.40;;;20.37;;
68680;SDS011;55836;49.858;6.756;2022-12-18T11:34:26;40.70;;;21.70;;
68680;SDS011;55836;49.858;6.756;2022-12-18T11:36:53;37.50;;;22.77;;
68680;SDS011;55836;49.858;6.756;2022-12-18T11:41:56;38.50;;;21.10;;
68680;SDS011;55836;49.858;6.756;2022-12-18T11:47:09;41.80;;;22.57;;
68680;SDS011;55836;49.858;6.756;2022-12-18T11:49:37;36.50;;;19.50;;
68680;SDS011;55836;49.858;6.756;2022-12-18T11:54:42;44.70;;;25.27;;
68680;SDS011;55836;49.858;6.756;2022-12-18T11:57:27;41.13;;;22.70;;
68680;SDS011;55836;49.858;6.756;2022-12-18T12:04:59;35.57;;;21.23;;
68680;SDS011;55836;49.858;6.756;2022-12-18T12:07:51;41.40;;;24.30;;
68680;SDS011;55836;49.858;6.756;2022-12-18T12:23:15;42.50;;;22.03;;
68680;SDS011;55836;49.858;6.756;2022-12-18T12:25:42;39.20;;;20.83;;
68680;SDS011;55836;49.858;6.756;2022-12-18T12:30:56;44.57;;;23.70;;
68680;SDS011;55836;49.858;6.756;2022-12-18T12:38:40;35.83;;;21.63;;
68680;SDS011;55836;49.858;6.756;2022-12-18T12:41:12;38.60;;;22.73;;
68680;SDS011;55836;49.858;6.756;2022-12-18T12:44:00;38.67;;;21.40;;
68680;SDS011;55836;49.858;6.756;2022-12-18T12:46:27;41.13;;;23.60;;
68680;SDS011;55836;49.858;6.756;2022-12-18T12:48:56;43.13;;;22.70;;
68680;SDS011;55836;49.858;6.756;2022-12-18T12:51:23;41.80;;;24.33;;
68680;SDS011;55836;49.858;6.756;2022-12-18T12:53:50;40.13;;;22.57;;
68680;SDS011;55836;49.858;6.756;2022-12-18T12:56:18;37.97;;;22.37;;
68680;SDS011;55836;49.858;6.756;2022-12-18T13:01:17;38.37;;;20.80;;
68680;SDS011;55836;49.858;6.756;2022-12-18T13:03:56;44.10;;;24.17;;
68680;SDS011;55836;49.858;6.756;2022-12-18T13:06:36;42.23;;;22.53;;
68680;SDS011;55836;49.858;6.756;2022-12-18T13:09:05;43.20;;;22.30;;
68680;SDS011;55836;49.858;6.756;2022-12-18T13:11:35;42.83;;;23.20;;
68680;SDS011;55836;49.858;6.756;2022-12-18T13:14:35;40.93;;;22.30;;
68680;SDS011;55836;49.858;6.756;2022-12-18T13:22:34;40.33;;;20.73;;
68680;SDS011;55836;49.858;6.756;2022-12-18T13:25:00;46.17;;;22.90;;
68680;SDS011;55836;49.858;6.756;2022-12-18T13:35:38;38.80;;;24.60;;
68680;SDS011;55836;49.858;6.756;2022-12-18T13:38:19;47.10;;;26.67;;
68680;SDS011;55836;49.858;6.756;2022-12-18T13:45:48;43.20;;;24.13;;
68680;SDS011;55836;49.858;6.756;2022-12-18T13:48:19;41.87;;;25.03;;
68680;SDS011;55836;49.858;6.756;2022-12-18T13:50:53;43.70;;;23.53;;
68680;SDS011;55836;49.858;6.756;2022-12-18T13:53:21;42.47;;;23.80;;
68680;SDS011;55836;49.858;6.756;2022-12-18T13:55:49;44.90;;;24.07;;
68680;SDS011;55836;49.858;6.756;2022-12-18T13:58:16;39.83;;;22.60;;
68680;SDS011;55836;49.858;6.756;2022-12-18T14:00:42;42.53;;;23.37;;
68680;SDS011;55836;49.858;6.756;2022-12-18T14:03:16;59.73;;;30.50;;
68680;SDS011;55836;49.858;6.756;2022-12-18T14:05:43;40.37;;;23.70;;
68680;SDS011;55836;49.858;6.756;2022-12-18T14:08:12;43.53;;;25.07;;
68680;SDS011;55836;49.858;6.756;2022-12-18T14:10:40;55.80;;;27.60;;
68680;SDS011;55836;49.858;6.756;2022-12-18T14:13:07;46.23;;;26.03;;
68680;SDS011;55836;49.858;6.756;2022-12-18T14:15:40;44.73;;;24.87;;
68680;SDS011;55836;49.858;6.756;2022-12-18T14:20:43;43.63;;;23.53;;
68680;SDS011;55836;49.858;6.756;2022-12-18T14:23:25;41.30;;;24.37;;
68680;SDS011;55836;49.858;6.756;2022-12-18T14:25:52;47.00;;;24.87;;
68680;SDS011;55836;49.858;6.756;2022-12-18T14:28:18;44.60;;;24.07;;
68680;SDS011;55836;49.858;6.756;2022-12-18T14:30:46;42.60;;;22.47;;
68680;SDS011;55836;49.858;6.756;2022-12-18T14:33:13;43.90;;;25.20;;
68680;SDS011;55836;49.858;6.756;2022-12-18T14:35:41;48.93;;;23.47;;
68680;SDS011;55836;49.858;6.756;2022-12-18T14:40:43;41.83;;;23.07;;
68680;SDS011;55836;49.858;6.756;2022-12-18T14:43:10;90.20;;;42.60;;
68680;SDS011;55836;49.858;6.756;2022-12-18T14:45:36;65.83;;;31.70;;
68680;SDS011;55836;49.858;6.756;2022-12-18T14:48:06;38.87;;;23.40;;
68680;SDS011;55836;49.858;6.756;2022-12-18T14:50:32;43.33;;;25.30;;
68680;SDS011;55836;49.858;6.756;2022-12-18T14:52:58;60.23;;;31.33;;
68680;SDS011;55836;49.858;6.756;2022-12-18T14:55:24;52.87;;;29.17;;
68680;SDS011;55836;49.858;6.756;2022-12-18T14:57:52;55.97;;;29.30;;
68680;SDS011;55836;49.858;6.756;2022-12-18T15:00:20;52.60;;;28.83;;
68680;SDS011;55836;49.858;6.756;2022-12-18T15:02:48;54.33;;;29.13;;
68680;SDS011;55836;49.858;6.756;2022-12-18T15:05:17;52.43;;;28.23;;
68680;SDS011;55836;49.858;6.756;2022-12-18T15:07:45;48.23;;;27.30;;
68680;SDS011;55836;49.858;6.756;2022-12-18T15:10:12;47.00;;;24.37;;
68680;SDS011;55836;49.858;6.756;2022-12-18T15:17:57;45.00;;;24.80;;
68680;SDS011;55836;49.858;6.756;2022-12-18T15:20:23;44.90;;;26.13;;
68680;SDS011;55836;49.858;6.756;2022-12-18T15:22:49;47.20;;;25.43;;
68680;SDS011;55836;49.858;6.756;2022-12-18T15:25:31;49.43;;;24.53;;
68680;SDS011;55836;49.858;6.756;2022-12-18T15:27:57;51.63;;;26.03;;
68680;SDS011;55836;49.858;6.756;2022-12-18T15:30:24;43.20;;;24.37;;
68680;SDS011;55836;49.858;6.756;2022-12-18T15:32:51;44.43;;;25.43;;
68680;SDS011;55836;49.858;6.756;2022-12-18T15:37:45;45.53;;;25.00;;
68680;SDS011;55836;49.858;6.756;2022-12-18T15:40:12;46.47;;;26.00;;
68680;SDS011;55836;49.858;6.756;2022-12-18T15:42:38;41.20;;;23.93;;
68680;SDS011;55836;49.858;6.756;2022-12-18T15:45:23;44.57;;;25.70;;
68680;SDS011;55836;49.858;6.756;2022-12-18T15:47:49;102.63;;;49.23;;
68680;SDS011;55836;49.858;6.756;2022-12-18T15:50:15;59.47;;;31.93;;
68680;SDS011;55836;49.858;6.756;2022-12-18T15:52:42;70.83;;;34.33;;
68680;SDS011;55836;49.858;6.756;2022-12-18T15:55:16;70.50;;;37.20;;
68680;SDS011;55836;49.858;6.756;2022-12-18T15:58:01;54.50;;;27.83;;
68680;SDS011;55836;49.858;6.756;2022-12-18T16:00:27;45.20;;;26.93;;
68680;SDS011;55836;49.858;6.756;2022-12-18T16:02:53;43.60;;;24.70;;
68680;SDS011;55836;49.858;6.756;2022-12-18T16:05:20;42.57;;;26.43;;
68680;SDS011;55836;49.858;6.756;2022-12-18T16:07:46;49.20;;;24.77;;
68680;SDS011;55836;49.858;6.756;2022-12-18T16:10:12;46.53;;;25.90;;
68680;SDS011;55836;49.858;6.756;2022-12-18T16:12:39;44.40;;;26.53;;
68680;SDS011;55836;49.858;6.756;2022-12-18T16:15:05;46.80;;;25.27;;
68680;SDS011;55836;49.858;6.756;2022-12-18T16:17:31;44.17;;;23.70;;
68680;SDS011;55836;49.858;6.756;2022-12-18T16:19:58;46.50;;;25.00;;
68680;SDS011;55836;49.858;6.756;2022-12-18T16:22:25;45.23;;;25.37;;
68680;SDS011;55836;49.858;6.756;2022-12-18T16:24:52;47.97;;;24.00;;
68680;SDS011;55836;49.858;6.756;2022-12-18T16:27:18;47.30;;;25.43;;
68680;SDS011;55836;49.858;6.756;2022-12-18T16:29:44;38.57;;;22.70;;
68680;SDS011;55836;49.858;6.756;2022-12-18T16:32:12;45.47;;;24.07;;
68680;SDS011;55836;49.858;6.756;2022-12-18T16:34:38;54.00;;;29.17;;
68680;SDS011;55836;49.858;6.756;2022-12-18T16:37:05;54.73;;;29.30;;
68680;SDS011;55836;49.858;6.756;2022-12-18T16:39:32;64.03;;;32.47;;
68680;SDS011;55836;49.858;6.756;2022-12-18T16:41:59;43.33;;;26.30;;
68680;SDS011;55836;49.858;6.756;2022-12-18T16:44:25;45.67;;;24.67;;
68680;SDS011;55836;49.858;6.756;2022-12-18T16:46:51;37.07;;;22.17;;
68680;SDS011;55836;49.858;6.756;2022-12-18T16:49:18;45.77;;;23.47;;
68680;SDS011;55836;49.858;6.756;2022-12-18T16:51:47;48.00;;;23.47;;
68680;SDS011;55836;49.858;6.756;2022-12-18T16:54:13;41.23;;;23.40;;
68680;SDS011;55836;49.858;6.756;2022-12-18T16:56:39;44.10;;;24.40;;
68680;SDS011;55836;49.858;6.756;2022-12-18T16:59:06;40.13;;;24.00;;
68680;SDS011;55836;49.858;6.756;2022-12-18T17:01:33;45.70;;;25.00;;
68680;SDS011;55836;49.858;6.756;2022-12-18T17:04:00;46.43;;;25.23;;
68680;SDS011;55836;49.858;6.756;2022-12-18T17:06:28;50.17;;;27.13;;
68680;SDS011;55836;49.858;6.756;2022-12-18T17:09:04;60.10;;;29.70;;
68680;SDS011;55836;49.858;6.756;2022-12-18T17:11:31;61.50;;;28.73;;